sensor_id;sensor_type;location;lat;lon;timestamp;pressure;altitude;pressure_sealevel;temperature;humidity
550;BME280;20066;48.764;9.176;2023-02-01T00:01:52;98874.94;;;4.24;80.90
550;BME280;20066;48.764;9.176;2023-02-01T00:04:20;98863.97;;;4.26;79.82
550;BME280;20066;48.764;9.176;2023-02-01T00:06:48;98879.00;;;4.51;80.15
550;BME280;20066;48.764;9.176;2023-02-01T00:09:16;98882.41;;;4.31;78.62
550;BME280;20066;48.764;9.176;2023-02-01T00:11:43;98868.19;;;4.27;80.29
550;BME280;20066;48.764;9.176;2023-02-01T00:14:12;98867.81;;;4.58;79.17
550;BME280;20066;48.764;9.176;2023-02-01T00:16:41;98864.94;;;4.21;80.92
550;BME280;20066;48.764;9.176;2023-02-01T00:19:11;98852.72;;;4.20;79.37
550;BME280;20066;48.764;9.176;2023-02-01T00:21:39;98857.53;;;4.27;80.46
550;BME280;20066;48.764;9.176;2023-02-01T00:24:09;98855.34;;;4.29;80.07
550;BME280;20066;48.764;9.176;2023-02-01T00:26:39;98864.75;;;5.01;76.84
550;BME280;20066;48.764;9.176;2023-02-01T00:29:10;98865.41;;;4.98;77.59
550;BME280;20066;48.764;9.176;2023-02-01T00:31:38;98862.16;;;4.59;78.58
550;BME280;20066;48.764;9.176;2023-02-01T00:34:10;98863.13;;;4.76;77.72
550;BME280;20066;48.764;9.176;2023-02-01T00:36:39;98850.09;;;4.41;78.90
550;BME280;20066;48.764;9.176;2023-02-01T00:39:07;98857.09;;;4.66;79.58
550;BME280;20066;48.764;9.176;2023-02-01T00:41:35;98855.41;;;4.95;76.38
550;BME280;20066;48.764;9.176;2023-02-01T00:44:03;98855.47;;;5.31;74.29
550;BME280;20066;48.764;9.176;2023-02-01T00:46:31;98852.19;;;5.01;76.17
550;BME280;20066;48.764;9.176;2023-02-01T00:48:58;98863.22;;;5.12;75.55
550;BME280;20066;48.764;9.176;2023-02-01T00:51:29;98853.25;;;5.21;74.74
550;BME280;20066;48.764;9.176;2023-02-01T00:53:57;98856.50;;;5.39;75.11
550;BME280;20066;48.764;9.176;2023-02-01T00:56:25;98855.69;;;5.14;74.91
550;BME280;20066;48.764;9.176;2023-02-01T00:58:53;98855.63;;;4.90;75.71
550;BME280;20066;48.764;9.176;2023-02-01T01:01:23;98852.59;;;5.49;74.97
550;BME280;20066;48.764;9.176;2023-02-01T01:03:53;98854.41;;;5.69;73.39
550;BME280;20066;48.764;9.176;2023-02-01T01:06:22;98852.81;;;5.56;73.37
550;BME280;20066;48.764;9.176;2023-02-01T01:08:52;98852.28;;;5.50;72.77
550;BME280;20066;48.764;9.176;2023-02-01T01:11:23;98854.38;;;5.44;72.78
550;BME280;20066;48.764;9.176;2023-02-01T01:13:52;98842.25;;;5.35;74.08
550;BME280;20066;48.764;9.176;2023-02-01T01:16:22;98838.34;;;5.08;74.59
550;BME280;20066;48.764;9.176;2023-02-01T01:18:50;98842.69;;;5.13;75.05
550;BME280;20066;48.764;9.176;2023-02-01T01:21:19;98828.47;;;5.21;74.07
550;BME280;20066;48.764;9.176;2023-02-01T01:23:47;98831.34;;;4.71;76.53
550;BME280;20066;48.764;9.176;2023-02-01T01:26:17;98833.69;;;4.72;76.86
550;BME280;20066;48.764;9.176;2023-02-01T01:28:46;98833.13;;;4.79;75.71
550;BME280;20066;48.764;9.176;2023-02-01T01:31:16;98838.91;;;5.14;75.18
550;BME280;20066;48.764;9.176;2023-02-01T01:33:46;98847.81;;;5.42;73.65
550;BME280;20066;48.764;9.176;2023-02-01T01:36:14;98850.06;;;4.95;74.57
550;BME280;20066;48.764;9.176;2023-02-01T01:38:42;98847.44;;;5.07;75.74
550;BME280;20066;48.764;9.176;2023-02-01T01:41:13;98837.25;;;5.21;74.41
550;BME280;20066;48.764;9.176;2023-02-01T01:43:57;98834.34;;;5.14;75.41
550;BME280;20066;48.764;9.176;2023-02-01T01:46:27;98843.38;;;5.70;71.98
550;BME280;20066;48.764;9.176;2023-02-01T01:49:00;98825.78;;;4.63;75.31
550;BME280;20066;48.764;9.176;2023-02-01T01:51:30;98830.53;;;5.03;74.94
550;BME280;20066;48.764;9.176;2023-02-01T01:54:02;98823.09;;;4.96;75.45
550;BME280;20066;48.764;9.176;2023-02-01T01:56:33;98822.16;;;4.80;75.96
550;BME280;20066;48.764;9.176;2023-02-01T01:59:04;98813.44;;;4.92;75.20
550;BME280;20066;48.764;9.176;2023-02-01T02:01:32;98815.50;;;4.74;75.95
550;BME280;20066;48.764;9.176;2023-02-01T02:04:00;98805.91;;;5.18;74.47
550;BME280;20066;48.764;9.176;2023-02-01T02:06:37;98810.56;;;5.09;74.00
550;BME280;20066;48.764;9.176;2023-02-01T02:09:06;98802.53;;;4.85;75.05
550;BME280;20066;48.764;9.176;2023-02-01T02:11:34;98808.03;;;5.73;73.04
550;BME280;20066;48.764;9.176;2023-02-01T02:14:04;98812.88;;;4.98;74.19
550;BME280;20066;48.764;9.176;2023-02-01T02:17:08;98813.34;;;5.25;75.43
550;BME280;20066;48.764;9.176;2023-02-01T02:20:08;98819.47;;;5.13;74.25
550;BME280;20066;48.764;9.176;2023-02-01T02:22:49;98814.44;;;4.99;74.88
550;BME280;20066;48.764;9.176;2023-02-01T02:25:49;98806.13;;;5.74;73.21
550;BME280;20066;48.764;9.176;2023-02-01T02:31:54;98801.69;;;5.17;74.89
550;BME280;20066;48.764;9.176;2023-02-01T02:34:28;98809.59;;;5.38;74.08
550;BME280;20066;48.764;9.176;2023-02-01T02:37:04;98801.25;;;5.39;74.07
550;BME280;20066;48.764;9.176;2023-02-01T02:39:44;98798.03;;;5.22;74.69
550;BME280;20066;48.764;9.176;2023-02-01T02:42:22;98797.50;;;6.05;71.16
550;BME280;20066;48.764;9.176;2023-02-01T02:45:13;98794.69;;;5.25;73.35
550;BME280;20066;48.764;9.176;2023-02-01T02:48:09;98794.13;;;5.19;74.72
550;BME280;20066;48.764;9.176;2023-02-01T02:50:44;98782.59;;;5.52;73.79
550;BME280;20066;48.764;9.176;2023-02-01T02:53:48;98783.13;;;5.08;76.21
550;BME280;20066;48.764;9.176;2023-02-01T02:56:37;98777.03;;;5.08;76.35
550;BME280;20066;48.764;9.176;2023-02-01T02:59:24;98782.22;;;4.92;77.81
550;BME280;20066;48.764;9.176;2023-02-01T03:02:11;98782.66;;;4.82;77.67
550;BME280;20066;48.764;9.176;2023-02-01T03:04:57;98775.06;;;4.72;77.32
550;BME280;20066;48.764;9.176;2023-02-01T03:07:57;98778.47;;;5.05;78.93
550;BME280;20066;48.764;9.176;2023-02-01T03:10:35;98783.25;;;5.00;78.25
550;BME280;20066;48.764;9.176;2023-02-01T03:13:06;98781.66;;;4.87;77.95
550;BME280;20066;48.764;9.176;2023-02-01T03:15:36;98780.44;;;5.08;77.25
550;BME280;20066;48.764;9.176;2023-02-01T03:18:11;98779.03;;;5.23;77.49
550;BME280;20066;48.764;9.176;2023-02-01T03:20:44;98776.34;;;5.11;77.44
550;BME280;20066;48.764;9.176;2023-02-01T03:23:18;98767.78;;;4.81;77.37
550;BME280;20066;48.764;9.176;2023-02-01T03:25:48;98773.88;;;4.94;78.95
550;BME280;20066;48.764;9.176;2023-02-01T03:28:18;98777.81;;;5.21;78.50
550;BME280;20066;48.764;9.176;2023-02-01T03:30:48;98754.44;;;4.93;78.14
550;BME280;20066;48.764;9.176;2023-02-01T03:33:19;98747.47;;;4.77;79.66
550;BME280;20066;48.764;9.176;2023-02-01T03:35:55;98735.63;;;4.53;80.24
550;BME280;20066;48.764;9.176;2023-02-01T03:38:29;98724.47;;;4.39;81.87
550;BME280;20066;48.764;9.176;2023-02-01T03:41:03;98719.81;;;4.36;81.21
550;BME280;20066;48.764;9.176;2023-02-01T03:43:39;98722.19;;;4.50;80.44
550;BME280;20066;48.764;9.176;2023-02-01T03:46:16;98711.44;;;4.58;80.20
550;BME280;20066;48.764;9.176;2023-02-01T03:48:46;98714.34;;;4.53;80.77
550;BME280;20066;48.764;9.176;2023-02-01T03:51:16;98717.31;;;4.52;81.03
550;BME280;20066;48.764;9.176;2023-02-01T03:53:47;98722.84;;;4.47;80.82
550;BME280;20066;48.764;9.176;2023-02-01T03:56:18;98726.78;;;4.74;79.71
550;BME280;20066;48.764;9.176;2023-02-01T03:58:46;98731.25;;;4.94;79.39
550;BME280;20066;48.764;9.176;2023-02-01T04:01:26;98733.59;;;5.07;80.03
550;BME280;20066;48.764;9.176;2023-02-01T04:03:55;98732.13;;;5.10;79.12
550;BME280;20066;48.764;9.176;2023-02-01T04:06:23;98720.25;;;5.20;76.91
550;BME280;20066;48.764;9.176;2023-02-01T04:08:52;98718.81;;;5.47;76.54
550;BME280;20066;48.764;9.176;2023-02-01T04:11:20;98726.81;;;5.10;77.24
550;BME280;20066;48.764;9.176;2023-02-01T04:13:48;98722.56;;;4.60;78.51
550;BME280;20066;48.764;9.176;2023-02-01T04:16:16;98730.59;;;5.33;75.76
550;BME280;20066;48.764;9.176;2023-02-01T04:18:43;98730.72;;;5.13;76.26
550;BME280;20066;48.764;9.176;2023-02-01T04:21:11;98740.91;;;5.47;76.59
550;BME280;20066;48.764;9.176;2023-02-01T04:23:39;98751.47;;;5.43;75.87
550;BME280;20066;48.764;9.176;2023-02-01T04:26:08;98761.91;;;5.24;77.49
550;BME280;20066;48.764;9.176;2023-02-01T04:28:36;98765.13;;;5.05;76.91
550;BME280;20066;48.764;9.176;2023-02-01T04:31:04;98762.59;;;5.45;75.35
550;BME280;20066;48.764;9.176;2023-02-01T04:33:31;98757.81;;;5.27;76.65
550;BME280;20066;48.764;9.176;2023-02-01T04:35:59;98742.34;;;4.96;77.48
550;BME280;20066;48.764;9.176;2023-02-01T04:38:27;98738.59;;;5.21;77.54
550;BME280;20066;48.764;9.176;2023-02-01T04:40:55;98738.00;;;4.79;78.48
550;BME280;20066;48.764;9.176;2023-02-01T04:43:24;98732.81;;;4.95;77.10
550;BME280;20066;48.764;9.176;2023-02-01T04:45:52;98740.25;;;5.38;75.91
550;BME280;20066;48.764;9.176;2023-02-01T04:48:20;98749.94;;;5.06;76.18
550;BME280;20066;48.764;9.176;2023-02-01T04:50:50;98754.69;;;5.25;75.92
550;BME280;20066;48.764;9.176;2023-02-01T04:53:18;98763.09;;;6.15;73.34
550;BME280;20066;48.764;9.176;2023-02-01T04:55:48;98750.75;;;5.71;74.28
550;BME280;20066;48.764;9.176;2023-02-01T04:58:16;98741.78;;;5.51;73.88
550;BME280;20066;48.764;9.176;2023-02-01T05:00:46;98725.47;;;5.40;75.25
550;BME280;20066;48.764;9.176;2023-02-01T05:03:14;98709.13;;;5.54;73.97
550;BME280;20066;48.764;9.176;2023-02-01T05:05:41;98721.59;;;5.14;76.91
550;BME280;20066;48.764;9.176;2023-02-01T05:08:09;98721.47;;;5.47;75.46
550;BME280;20066;48.764;9.176;2023-02-01T05:10:37;98740.34;;;5.94;72.63
550;BME280;20066;48.764;9.176;2023-02-01T05:13:04;98738.78;;;5.53;73.26
550;BME280;20066;48.764;9.176;2023-02-01T05:15:51;98751.53;;;6.11;73.13
550;BME280;20066;48.764;9.176;2023-02-01T05:18:19;98750.78;;;6.39;70.22
550;BME280;20066;48.764;9.176;2023-02-01T05:20:46;98749.72;;;6.43;70.17
550;BME280;20066;48.764;9.176;2023-02-01T05:23:14;98752.63;;;5.82;72.93
550;BME280;20066;48.764;9.176;2023-02-01T05:25:42;98754.13;;;6.36;70.60
550;BME280;20066;48.764;9.176;2023-02-01T05:28:10;98742.81;;;5.87;71.33
550;BME280;20066;48.764;9.176;2023-02-01T05:30:38;98740.50;;;6.41;70.59
550;BME280;20066;48.764;9.176;2023-02-01T05:33:09;98742.50;;;6.87;69.05
550;BME280;20066;48.764;9.176;2023-02-01T05:35:36;98740.28;;;6.46;68.69
550;BME280;20066;48.764;9.176;2023-02-01T05:38:04;98748.28;;;5.90;72.05
550;BME280;20066;48.764;9.176;2023-02-01T05:40:32;98752.06;;;6.17;72.15
550;BME280;20066;48.764;9.176;2023-02-01T05:43:00;98750.84;;;6.42;70.60
550;BME280;20066;48.764;9.176;2023-02-01T05:45:27;98752.50;;;6.19;72.10
550;BME280;20066;48.764;9.176;2023-02-01T05:47:55;98758.38;;;6.24;69.63
550;BME280;20066;48.764;9.176;2023-02-01T05:50:24;98760.75;;;5.74;72.92
550;BME280;20066;48.764;9.176;2023-02-01T05:52:52;98767.41;;;5.80;74.80
550;BME280;20066;48.764;9.176;2023-02-01T05:55:19;98762.00;;;6.16;74.32
550;BME280;20066;48.764;9.176;2023-02-01T05:57:47;98770.88;;;6.64;70.85
550;BME280;20066;48.764;9.176;2023-02-01T06:00:16;98753.47;;;5.34;73.97
550;BME280;20066;48.764;9.176;2023-02-01T06:02:46;98749.91;;;5.42;77.64
550;BME280;20066;48.764;9.176;2023-02-01T06:05:14;98742.47;;;5.36;77.17
550;BME280;20066;48.764;9.176;2023-02-01T06:07:43;98738.59;;;5.09;77.96
550;BME280;20066;48.764;9.176;2023-02-01T06:10:11;98729.22;;;4.66;79.01
550;BME280;20066;48.764;9.176;2023-02-01T06:12:39;98732.03;;;4.82;79.49
550;BME280;20066;48.764;9.176;2023-02-01T06:15:08;98731.25;;;4.82;79.08
550;BME280;20066;48.764;9.176;2023-02-01T06:17:35;98711.69;;;4.65;79.74
550;BME280;20066;48.764;9.176;2023-02-01T06:20:04;98725.78;;;4.66;80.02
550;BME280;20066;48.764;9.176;2023-02-01T06:22:33;98721.47;;;4.86;79.39
550;BME280;20066;48.764;9.176;2023-02-01T06:25:04;98719.81;;;4.93;77.93
550;BME280;20066;48.764;9.176;2023-02-01T06:27:32;98727.69;;;5.02;78.10
550;BME280;20066;48.764;9.176;2023-02-01T06:30:00;98725.88;;;5.55;75.35
550;BME280;20066;48.764;9.176;2023-02-01T06:32:28;98727.09;;;5.57;74.41
550;BME280;20066;48.764;9.176;2023-02-01T06:34:56;98737.91;;;5.24;76.89
550;BME280;20066;48.764;9.176;2023-02-01T06:37:25;98738.25;;;5.99;73.43
550;BME280;20066;48.764;9.176;2023-02-01T06:39:53;98738.09;;;6.36;71.72
550;BME280;20066;48.764;9.176;2023-02-01T06:42:23;98757.72;;;6.28;72.66
550;BME280;20066;48.764;9.176;2023-02-01T06:44:50;98759.69;;;6.74;70.64
550;BME280;20066;48.764;9.176;2023-02-01T06:47:18;98752.03;;;6.73;70.47
550;BME280;20066;48.764;9.176;2023-02-01T06:49:46;98751.97;;;5.73;72.09
550;BME280;20066;48.764;9.176;2023-02-01T06:52:14;98746.16;;;6.23;71.97
550;BME280;20066;48.764;9.176;2023-02-01T06:54:41;98749.31;;;5.73;72.04
550;BME280;20066;48.764;9.176;2023-02-01T06:57:09;98754.19;;;5.71;73.84
550;BME280;20066;48.764;9.176;2023-02-01T06:59:38;98746.31;;;5.75;73.13
550;BME280;20066;48.764;9.176;2023-02-01T07:02:09;98754.88;;;5.68;73.75
550;BME280;20066;48.764;9.176;2023-02-01T07:04:37;98758.19;;;5.90;72.65
550;BME280;20066;48.764;9.176;2023-02-01T07:07:05;98759.66;;;5.75;73.14
550;BME280;20066;48.764;9.176;2023-02-01T07:09:33;98781.53;;;5.93;71.95
550;BME280;20066;48.764;9.176;2023-02-01T07:12:02;98772.50;;;5.97;72.28
550;BME280;20066;48.764;9.176;2023-02-01T07:14:35;98780.38;;;6.06;73.03
550;BME280;20066;48.764;9.176;2023-02-01T07:17:07;98786.69;;;6.13;71.42
550;BME280;20066;48.764;9.176;2023-02-01T07:19:35;98797.09;;;6.31;70.19
550;BME280;20066;48.764;9.176;2023-02-01T07:22:03;98787.94;;;6.04;69.87
550;BME280;20066;48.764;9.176;2023-02-01T07:24:30;98793.72;;;6.46;70.80
550;BME280;20066;48.764;9.176;2023-02-01T07:26:58;98804.28;;;6.42;70.31
550;BME280;20066;48.764;9.176;2023-02-01T07:29:26;98802.06;;;6.44;69.43
550;BME280;20066;48.764;9.176;2023-02-01T07:31:53;98794.72;;;6.69;69.76
550;BME280;20066;48.764;9.176;2023-02-01T07:34:23;98803.50;;;6.42;70.68
550;BME280;20066;48.764;9.176;2023-02-01T07:36:50;98812.78;;;6.32;69.55
550;BME280;20066;48.764;9.176;2023-02-01T07:39:18;98813.59;;;6.20;70.93
550;BME280;20066;48.764;9.176;2023-02-01T07:41:46;98815.16;;;6.09;71.29
550;BME280;20066;48.764;9.176;2023-02-01T07:44:14;98802.81;;;6.17;70.61
550;BME280;20066;48.764;9.176;2023-02-01T07:46:43;98795.53;;;6.57;70.13
550;BME280;20066;48.764;9.176;2023-02-01T07:49:10;98805.88;;;5.91;71.87
550;BME280;20066;48.764;9.176;2023-02-01T07:51:41;98806.88;;;6.39;70.36
550;BME280;20066;48.764;9.176;2023-02-01T07:54:09;98813.56;;;6.88;68.52
550;BME280;20066;48.764;9.176;2023-02-01T07:56:37;98796.78;;;5.56;71.98
550;BME280;20066;48.764;9.176;2023-02-01T07:59:04;98804.41;;;6.34;69.53
550;BME280;20066;48.764;9.176;2023-02-01T08:01:33;98798.16;;;6.14;69.72
550;BME280;20066;48.764;9.176;2023-02-01T08:04:02;98791.00;;;5.78;70.29
550;BME280;20066;48.764;9.176;2023-02-01T08:06:31;98795.69;;;6.21;68.37
550;BME280;20066;48.764;9.176;2023-02-01T08:09:01;98801.59;;;6.14;70.00
550;BME280;20066;48.764;9.176;2023-02-01T08:11:29;98799.72;;;6.03;69.03
550;BME280;20066;48.764;9.176;2023-02-01T08:13:58;98817.59;;;6.82;67.57
550;BME280;20066;48.764;9.176;2023-02-01T08:16:26;98790.47;;;6.68;67.08
550;BME280;20066;48.764;9.176;2023-02-01T08:18:54;98789.25;;;6.10;69.56
550;BME280;20066;48.764;9.176;2023-02-01T08:21:24;98772.69;;;6.04;70.16
550;BME280;20066;48.764;9.176;2023-02-01T08:23:52;98779.63;;;5.93;70.66
550;BME280;20066;48.764;9.176;2023-02-01T08:26:22;98776.94;;;6.61;69.28
550;BME280;20066;48.764;9.176;2023-02-01T08:28:52;98785.34;;;6.47;68.95
550;BME280;20066;48.764;9.176;2023-02-01T08:31:21;98785.91;;;6.41;68.88
550;BME280;20066;48.764;9.176;2023-02-01T08:33:51;98784.22;;;6.20;69.08
550;BME280;20066;48.764;9.176;2023-02-01T08:36:23;98785.00;;;5.81;70.30
550;BME280;20066;48.764;9.176;2023-02-01T08:38:51;98795.56;;;6.17;69.33
550;BME280;20066;48.764;9.176;2023-02-01T08:41:21;98795.47;;;5.74;70.87
550;BME280;20066;48.764;9.176;2023-02-01T08:43:50;98809.25;;;5.76;70.19
550;BME280;20066;48.764;9.176;2023-02-01T08:46:19;98814.00;;;6.35;68.75
550;BME280;20066;48.764;9.176;2023-02-01T08:48:48;98816.66;;;6.90;67.03
550;BME280;20066;48.764;9.176;2023-02-01T08:51:18;98809.34;;;6.59;66.68
550;BME280;20066;48.764;9.176;2023-02-01T08:53:46;98806.25;;;6.85;65.88
550;BME280;20066;48.764;9.176;2023-02-01T08:56:15;98824.22;;;6.33;67.03
550;BME280;20066;48.764;9.176;2023-02-01T08:58:45;98830.47;;;6.92;65.86
550;BME280;20066;48.764;9.176;2023-02-01T09:01:14;98819.59;;;6.85;65.28
550;BME280;20066;48.764;9.176;2023-02-01T09:03:43;98823.06;;;7.17;64.27
550;BME280;20066;48.764;9.176;2023-02-01T09:06:13;98826.16;;;6.88;64.11
550;BME280;20066;48.764;9.176;2023-02-01T09:08:41;98822.56;;;7.12;64.18
550;BME280;20066;48.764;9.176;2023-02-01T09:11:12;98833.19;;;7.40;62.84
550;BME280;20066;48.764;9.176;2023-02-01T09:13:40;98823.22;;;7.71;61.24
550;BME280;20066;48.764;9.176;2023-02-01T09:16:10;98834.19;;;8.36;59.73
550;BME280;20066;48.764;9.176;2023-02-01T09:18:39;98825.84;;;7.21;62.10
550;BME280;20066;48.764;9.176;2023-02-01T09:21:27;98837.03;;;7.73;61.80
550;BME280;20066;48.764;9.176;2023-02-01T09:23:55;98846.75;;;7.47;62.43
550;BME280;20066;48.764;9.176;2023-02-01T09:26:22;98844.72;;;7.12;63.44
550;BME280;20066;48.764;9.176;2023-02-01T09:28:58;98859.28;;;6.71;64.33
550;BME280;20066;48.764;9.176;2023-02-01T09:31:27;98851.38;;;7.34;62.57
550;BME280;20066;48.764;9.176;2023-02-01T09:33:55;98858.44;;;7.89;60.79
550;BME280;20066;48.764;9.176;2023-02-01T09:36:23;98850.34;;;8.40;58.78
550;BME280;20066;48.764;9.176;2023-02-01T09:38:50;98864.09;;;7.37;61.47
550;BME280;20066;48.764;9.176;2023-02-01T09:41:27;98849.88;;;7.99;60.44
550;BME280;20066;48.764;9.176;2023-02-01T09:44:05;98852.41;;;8.11;59.66
550;BME280;20066;48.764;9.176;2023-02-01T09:46:36;98858.44;;;8.43;58.64
550;BME280;20066;48.764;9.176;2023-02-01T09:49:05;98857.44;;;7.62;59.47
550;BME280;20066;48.764;9.176;2023-02-01T09:51:37;98853.28;;;7.65;60.70
550;BME280;20066;48.764;9.176;2023-02-01T09:54:09;98861.44;;;7.88;59.62
550;BME280;20066;48.764;9.176;2023-02-01T09:56:44;98871.00;;;8.59;58.08
550;BME280;20066;48.764;9.176;2023-02-01T09:59:23;98867.19;;;7.86;59.09
550;BME280;20066;48.764;9.176;2023-02-01T10:01:55;98867.41;;;8.51;57.25
550;BME280;20066;48.764;9.176;2023-02-01T10:04:23;98876.38;;;9.39;55.17
550;BME280;20066;48.764;9.176;2023-02-01T10:06:59;98868.47;;;9.04;56.02
550;BME280;20066;48.764;9.176;2023-02-01T10:09:42;98867.97;;;8.60;56.21
550;BME280;20066;48.764;9.176;2023-02-01T10:12:31;98880.28;;;9.22;55.73
550;BME280;20066;48.764;9.176;2023-02-01T10:15:15;98873.84;;;8.11;56.41
550;BME280;20066;48.764;9.176;2023-02-01T10:17:59;98870.91;;;8.17;56.56
550;BME280;20066;48.764;9.176;2023-02-01T10:20:37;98893.28;;;8.24;57.01
550;BME280;20066;48.764;9.176;2023-02-01T10:23:23;98881.56;;;7.97;57.38
550;BME280;20066;48.764;9.176;2023-02-01T10:26:05;98890.69;;;8.12;56.60
550;BME280;20066;48.764;9.176;2023-02-01T10:28:40;98892.72;;;8.69;54.29
550;BME280;20066;48.764;9.176;2023-02-01T10:31:09;98890.03;;;8.34;54.88
550;BME280;20066;48.764;9.176;2023-02-01T10:33:41;98893.09;;;8.52;55.05
550;BME280;20066;48.764;9.176;2023-02-01T10:36:14;98896.03;;;7.77;56.39
550;BME280;20066;48.764;9.176;2023-02-01T10:38:45;98886.91;;;8.13;55.47
550;BME280;20066;48.764;9.176;2023-02-01T10:41:16;98894.63;;;8.69;54.67
550;BME280;20066;48.764;9.176;2023-02-01T10:43:47;98895.53;;;8.41;55.42
550;BME280;20066;48.764;9.176;2023-02-01T10:46:16;98885.72;;;8.30;54.61
550;BME280;20066;48.764;9.176;2023-02-01T10:48:45;98900.28;;;8.48;54.29
550;BME280;20066;48.764;9.176;2023-02-01T10:51:18;98898.28;;;8.99;53.48
550;BME280;20066;48.764;9.176;2023-02-01T10:53:50;98892.03;;;8.57;54.21
550;BME280;20066;48.764;9.176;2023-02-01T10:56:22;98898.13;;;8.03;54.95
550;BME280;20066;48.764;9.176;2023-02-01T10:58:50;98905.34;;;7.67;55.60
550;BME280;20066;48.764;9.176;2023-02-01T11:01:21;98887.13;;;8.24;54.20
550;BME280;20066;48.764;9.176;2023-02-01T11:03:54;98887.44;;;8.03;55.16
550;BME280;20066;48.764;9.176;2023-02-01T11:06:26;98870.72;;;7.74;54.80
550;BME280;20066;48.764;9.176;2023-02-01T11:08:57;98873.06;;;7.76;54.42
550;BME280;20066;48.764;9.176;2023-02-01T11:11:26;98872.81;;;8.70;52.35
550;BME280;20066;48.764;9.176;2023-02-01T11:13:56;98870.53;;;8.72;52.74
550;BME280;20066;48.764;9.176;2023-02-01T11:16:33;98866.06;;;8.41;52.54
550;BME280;20066;48.764;9.176;2023-02-01T11:19:03;98865.56;;;8.17;53.27
550;BME280;20066;48.764;9.176;2023-02-01T11:21:31;98872.88;;;8.20;52.77
550;BME280;20066;48.764;9.176;2023-02-01T11:24:01;98865.38;;;8.83;51.85
550;BME280;20066;48.764;9.176;2023-02-01T11:26:30;98868.56;;;8.69;51.69
550;BME280;20066;48.764;9.176;2023-02-01T11:29:01;98860.88;;;8.48;52.35
550;BME280;20066;48.764;9.176;2023-02-01T11:31:32;98857.03;;;8.30;52.90
550;BME280;20066;48.764;9.176;2023-02-01T11:34:07;98857.91;;;8.53;52.62
550;BME280;20066;48.764;9.176;2023-02-01T11:36:36;98852.66;;;8.99;51.68
550;BME280;20066;48.764;9.176;2023-02-01T11:39:12;98848.13;;;8.26;52.84
550;BME280;20066;48.764;9.176;2023-02-01T11:41:56;98840.94;;;8.49;51.98
550;BME280;20066;48.764;9.176;2023-02-01T11:44:30;98829.03;;;8.47;52.31
550;BME280;20066;48.764;9.176;2023-02-01T11:47:18;98822.06;;;8.23;53.21
550;BME280;20066;48.764;9.176;2023-02-01T11:49:49;98819.00;;;9.02;51.11
550;BME280;20066;48.764;9.176;2023-02-01T11:52:26;98819.56;;;8.91;51.59
550;BME280;20066;48.764;9.176;2023-02-01T11:55:10;98817.72;;;7.99;52.47
550;BME280;20066;48.764;9.176;2023-02-01T11:57:52;98818.66;;;8.45;51.56
550;BME280;20066;48.764;9.176;2023-02-01T12:00:37;98812.38;;;8.19;51.11
550;BME280;20066;48.764;9.176;2023-02-01T12:03:42;98801.19;;;8.71;50.76
550;BME280;20066;48.764;9.176;2023-02-01T12:06:22;98802.09;;;8.40;51.67
550;BME280;20066;48.764;9.176;2023-02-01T12:09:09;98803.94;;;9.20;49.61
550;BME280;20066;48.764;9.176;2023-02-01T12:11:46;98795.03;;;8.51;50.54
550;BME280;20066;48.764;9.176;2023-02-01T12:14:32;98794.69;;;8.52;50.97
550;BME280;20066;48.764;9.176;2023-02-01T12:17:18;98805.06;;;8.15;51.24
550;BME280;20066;48.764;9.176;2023-02-01T12:20:02;98804.88;;;7.89;51.99
550;BME280;20066;48.764;9.176;2023-02-01T12:22:45;98797.69;;;7.93;51.61
550;BME280;20066;48.764;9.176;2023-02-01T12:25:30;98796.88;;;8.47;51.04
550;BME280;20066;48.764;9.176;2023-02-01T12:31:18;98800.63;;;8.23;51.61
550;BME280;20066;48.764;9.176;2023-02-01T12:34:01;98802.28;;;7.93;52.11
550;BME280;20066;48.764;9.176;2023-02-01T12:36:41;98815.75;;;8.35;51.94
550;BME280;20066;48.764;9.176;2023-02-01T12:39:22;98801.72;;;8.03;52.44
550;BME280;20066;48.764;9.176;2023-02-01T12:41:58;98807.03;;;8.38;51.46
550;BME280;20066;48.764;9.176;2023-02-01T12:44:35;98805.09;;;7.49;53.67
550;BME280;20066;48.764;9.176;2023-02-01T12:47:08;98811.25;;;7.50;53.88
550;BME280;20066;48.764;9.176;2023-02-01T12:49:47;98817.97;;;7.59;53.23
550;BME280;20066;48.764;9.176;2023-02-01T12:52:20;98797.41;;;7.98;53.32
550;BME280;20066;48.764;9.176;2023-02-01T12:54:54;98812.84;;;8.05;52.82
550;BME280;20066;48.764;9.176;2023-02-01T12:57:26;98823.84;;;8.00;53.11
550;BME280;20066;48.764;9.176;2023-02-01T13:00:01;98807.84;;;8.80;51.30
550;BME280;20066;48.764;9.176;2023-02-01T13:02:38;98815.63;;;8.66;50.96
550;BME280;20066;48.764;9.176;2023-02-01T13:05:14;98810.28;;;8.47;51.96
550;BME280;20066;48.764;9.176;2023-02-01T13:07:47;98815.06;;;8.76;50.99
550;BME280;20066;48.764;9.176;2023-02-01T13:10:22;98807.81;;;8.38;52.46
550;BME280;20066;48.764;9.176;2023-02-01T13:12:55;98795.72;;;7.90;53.41
550;BME280;20066;48.764;9.176;2023-02-01T13:15:27;98799.69;;;8.35;53.15
550;BME280;20066;48.764;9.176;2023-02-01T13:18:00;98797.06;;;8.00;53.20
550;BME280;20066;48.764;9.176;2023-02-01T13:20:31;98801.59;;;8.34;53.03
550;BME280;20066;48.764;9.176;2023-02-01T13:23:03;98791.88;;;8.45;52.48
550;BME280;20066;48.764;9.176;2023-02-01T13:25:37;98778.88;;;7.90;53.33
550;BME280;20066;48.764;9.176;2023-02-01T13:28:14;98790.53;;;7.62;54.33
550;BME280;20066;48.764;9.176;2023-02-01T13:30:58;98776.56;;;7.37;55.12
550;BME280;20066;48.764;9.176;2023-02-01T13:33:41;98771.19;;;7.53;54.43
550;BME280;20066;48.764;9.176;2023-02-01T13:36:38;98779.03;;;7.62;54.48
550;BME280;20066;48.764;9.176;2023-02-01T13:39:28;98771.22;;;8.07;53.28
550;BME280;20066;48.764;9.176;2023-02-01T13:42:03;98774.53;;;8.01;52.67
550;BME280;20066;48.764;9.176;2023-02-01T13:44:36;98777.19;;;8.20;52.63
550;BME280;20066;48.764;9.176;2023-02-01T13:47:14;98767.59;;;7.30;54.75
550;BME280;20066;48.764;9.176;2023-02-01T13:49:44;98772.81;;;7.58;54.32
550;BME280;20066;48.764;9.176;2023-02-01T13:52:25;98776.56;;;8.07;54.06
550;BME280;20066;48.764;9.176;2023-02-01T13:55:25;98776.13;;;7.86;54.74
550;BME280;20066;48.764;9.176;2023-02-01T13:58:06;98771.06;;;8.00;54.41
550;BME280;20066;48.764;9.176;2023-02-01T14:00:38;98761.38;;;7.76;55.00
550;BME280;20066;48.764;9.176;2023-02-01T14:03:10;98759.22;;;8.01;54.63
550;BME280;20066;48.764;9.176;2023-02-01T14:06:01;98757.09;;;8.10;54.19
550;BME280;20066;48.764;9.176;2023-02-01T14:09:09;98758.91;;;8.64;52.72